MST,Max TemperatureF,Mean TemperatureF,Min TemperatureF,Max Dew PointF,MeanDew PointF,Min DewpointF,Max Humidity, Mean Humidity, Min Humidity, Max Sea Level PressureIn, Mean Sea Level PressureIn, Min Sea Level PressureIn, Max VisibilityMiles, Mean VisibilityMiles, Min VisibilityMiles, Max Wind SpeedMPH, Mean Wind SpeedMPH, Max Gust SpeedMPH,PrecipitationIn, CloudCover, Events, WindDirDegrees
2013-2-1,40,21,2,17,9,-2,88,61,33,30.45,30.35,30.19,10,10,10,9,4,12,0.00,0,,277
2013-2-2,41,21,0,20,10,-3,88,61,33,30.63,30.52,30.38,10,10,10,8,3,10,0.00,0,,284
2013-2-3,35,20,5,20,13,2,91,66,41,30.45,30.28,30.12,10,10,10,10,2,14,0.00,2,,298
2013-2-4,45,24,3,19,12,0,88,58,28,30.26,30.16,30.05,10,10,10,12,4,14,0.00,0,,294
2013-2-5,48,27,5,19,12,2,92,59,25,30.27,30.15,30.02,10,10,10,10,3,12,0.00,0,,282
2013-2-6,41,24,6,25,16,3,92,68,44,30.15,30.04,29.94,10,10,10,13,4,15,0.00,2,,321
2013-2-7,43,28,13,25,14,4,92,56,20,30.27,30.16,30.00,10,10,10,10,3,13,0.00,1,,289
2013-2-8,44,29,13,22,18,10,88,63,37,30.20,29.97,29.71,10,10,10,31,12,39,0.00,1,,181
2013-2-9,36,27,18,21,15,6,84,61,38,29.69,29.59,29.51,10,10,10,30,12,37,T,3,,219
2013-2-10,33,19,5,11,6,1,76,52,28,30.00,29.85,29.65,10,10,10,21,7,26,0.00,2,,179
2013-2-11,30,20,10,18,11,4,84,60,35,30.09,29.96,29.89,10,10,5,21,11,26,T,6,Snow,211
2013-2-12,31,15,-1,8,0,-5,83,52,21,30.27,30.18,30.09,10,10,10,13,5,16,0.00,0,,305
2013-2-13,38,19,0,14,6,-5,87,60,32,30.32,30.22,30.09,10,10,10,10,4,12,0.00,0,,264
2013-2-14,40,21,2,13,7,-3,87,57,27,30.30,30.20,30.07,10,10,10,22,7,26,0.00,0,,297
2013-2-15,37,20,3,8,4,-2,83,52,21,30.47,30.37,30.21,10,10,10,26,10,33,0.00,1,,312
2013-2-16,44,23,2,14,5,-2,86,52,18,30.57,30.39,30.18,10,10,10,8,2,16,0.00,0,,248
2013-2-17,48,25,2,12,4,-4,87,49,11,30.23,29.96,29.73,10,9,2,29,7,37,0.00,0,,250
2013-2-18,38,22,5,9,-1,-14,76,44,12,30.23,30.00,29.74,10,10,10,29,8,36,0.00,1,,349
2013-2-19,43,20,-4,15,3,-8,87,52,17,30.32,30.05,29.80,10,10,10,12,2,15,0.00,1,,264
2013-2-20,33,22,10,28,21,9,92,77,62,29.78,29.61,29.48,10,5,0,21,5,25,0.14,6,Fog-Snow,238
2013-2-21,35,14,-7,21,7,-11,92,70,47,29.95,29.74,29.52,10,9,2,12,4,15,0.00,5,,230
2013-2-22,31,20,8,19,15,6,92,70,47,30.04,29.89,29.79,10,8,2,14,3,17,0.01,6,Snow,295
2013-2-23,36,17,-3,22,9,-8,88,66,43,30.16,29.94,29.64,10,9,1,12,5,13,T,2,Snow,225
2013-2-24,35,21,7,18,10,4,92,64,36,29.95,29.76,29.63,10,8,0,23,9,30,T,4,Fog,310
2013-2-25,38,22,5,10,4,0,80,50,20,30.11,30.00,29.91,10,10,10,18,7,24,0.00,0,,344
2013-2-26,33,18,2,18,8,-2,88,62,36,30.09,29.88,29.72,10,8,1,26,9,32,T,5,Snow,312
2013-2-27,33,15,-4,4,1,-6,86,56,25,30.39,30.30,30.14,10,10,10,15,4,20,0.00,0,,313
2013-2-28,39,18,-3,9,2,-6,86,55,24,30.50,30.37,30.21,10,10,0,20,7,25,0.00,0,,290